Briefing drone pour Imphy

Rechercher une autre localisation

Conditions de vol :


Nous sommes le : Samedi 16 octobre 2021
Il est 12:19 UTC (14:19 LT)

Lever de soleil : 05:40 UTC (07:40 LT)
Coucher de soleil : 17:24 UTC (19:24 LT)

Météo

L'essentiel des conditions de vol

VIGILANCE MÉTÉO FRANCE - Nièvre (58)
Pas de vigilances particulieres
CARTES DES FRONTS
METAR de LFQG
LFQG 161200Z AUTO VRB03KT CAVOK 16/09 Q1020

Date d'émission: 16/10/2021
Heure d'émission: 12:00 UTC
Vent: Variable 3 KT (6 km/h)
Visibilité horizontale: > 10 km
Plafond : Plafond et visibilité OK (CAVOK)
Température: 16 °C
Point de rosée: 9 °C
Humidité: 63%
Pression (QNH): 1020 hPa
Prévision 24h pour Nevers (5 km)
Vent : 132° pour 3 KT (10 km/h)
Temperature Maxi: 12 °C
Temperature Min: 12 °C
Humidité : 66%
Condition : Partiellement nuageux



Warning: count(): Parameter must be an array or an object that implements Countable in /homepages/6/d509196549/htdocs/droneoxygene/briefing.php on line 743
WEBCAM POUR IMPHY

Réglementation

Voler en sécurité

CARTES AERONAUTIQUE 1/500.000
CARTES VAC (LFQG)
SUP AIP




Chargement des AIP...
NOTAM (IMPHY + Terrain à proximité / FIR )




Chargement des NOTAMS...
CONTACT PREFECTURE 58


Avertissement : Les données mises à disposition sont indicatives. Oxygène Drone ne pourra être tenu responsable de dégâts causés aux biens et aux personnes.